createdAt,value
2018-01-06T00:00:23.736Z,971.20
2018-01-06T00:01:23.685Z,971.18
2018-01-06T00:02:23.633Z,971.16
2018-01-06T00:03:23.599Z,971.14
2018-01-06T00:04:23.552Z,971.12
2018-01-06T00:05:23.514Z,971.17
2018-01-06T00:06:23.448Z,971.16
2018-01-06T00:07:23.422Z,971.17
2018-01-06T00:08:23.378Z,971.13
2018-01-06T00:09:23.328Z,971.06
2018-01-06T00:10:23.291Z,971.03
2018-01-06T00:11:23.249Z,971.06
2018-01-06T00:12:23.199Z,971.06
2018-01-06T00:13:23.168Z,971.04
2018-01-06T00:14:23.129Z,971.11
2018-01-06T00:15:23.069Z,971.19
2018-01-06T00:16:23.025Z,971.16
2018-01-06T00:17:22.996Z,971.17
2018-01-06T00:18:22.937Z,971.21
2018-01-06T00:19:22.887Z,971.20
2018-01-06T00:20:22.847Z,971.22
2018-01-06T00:21:22.810Z,971.23
2018-01-06T00:22:22.760Z,971.15
2018-01-06T00:23:22.707Z,971.15
2018-01-06T00:24:22.664Z,971.18
2018-01-06T00:25:22.644Z,971.16
2018-01-06T00:26:22.578Z,971.18
2018-01-06T00:27:22.540Z,971.23
2018-01-06T00:28:22.506Z,971.20
2018-01-06T00:29:22.470Z,971.19
2018-01-06T00:30:22.414Z,971.20
2018-01-06T00:31:22.362Z,971.20
2018-01-06T00:32:22.323Z,971.27
2018-01-06T00:33:22.287Z,971.28
2018-01-06T00:34:22.237Z,971.31
2018-01-06T00:35:22.193Z,971.36
2018-01-06T00:36:22.147Z,971.37
2018-01-06T00:37:22.098Z,971.33
2018-01-06T00:38:22.057Z,971.35
2018-01-06T00:39:22.022Z,971.34
2018-01-06T00:40:21.978Z,971.38
2018-01-06T00:41:21.960Z,971.31
2018-01-06T00:42:21.881Z,971.34
2018-01-06T00:43:21.843Z,971.35
2018-01-06T00:44:21.794Z,971.36
2018-01-06T00:45:21.766Z,971.35
2018-01-06T00:46:21.725Z,971.33
2018-01-06T00:47:21.665Z,971.31
2018-01-06T00:48:21.634Z,971.30
2018-01-06T00:49:21.580Z,971.25
2018-01-06T00:50:21.536Z,971.29
2018-01-06T00:51:21.498Z,971.25
2018-01-06T00:52:21.447Z,971.25
2018-01-06T00:53:21.412Z,971.27
2018-01-06T00:54:21.372Z,971.30
2018-01-06T00:55:21.358Z,971.32
2018-01-06T00:56:21.268Z,971.32
2018-01-06T00:57:21.226Z,971.32
2018-01-06T00:58:21.177Z,971.29
2018-01-06T00:59:21.154Z,971.33
2018-01-06T01:00:21.104Z,971.37
2018-01-06T01:01:21.059Z,971.39
2018-01-06T01:02:21.016Z,971.35
2018-01-06T01:03:20.975Z,971.40
2018-01-06T01:04:20.927Z,971.37
2018-01-06T01:05:20.881Z,971.36
2018-01-06T01:06:20.840Z,971.38
2018-01-06T01:07:20.796Z,971.42
2018-01-06T01:08:20.766Z,971.47
2018-01-06T01:09:20.709Z,971.45
2018-01-06T01:10:20.652Z,971.48
2018-01-06T01:11:20.614Z,971.47
2018-01-06T01:12:20.589Z,971.52
2018-01-06T01:13:20.531Z,971.54
2018-01-06T01:14:20.482Z,971.57
2018-01-06T01:15:20.446Z,971.55
2018-01-06T01:16:20.406Z,971.52
2018-01-06T01:17:20.357Z,971.53
2018-01-06T01:18:20.311Z,971.54
2018-01-06T01:19:20.278Z,971.54
2018-01-06T01:20:20.225Z,971.55
2018-01-06T01:21:20.183Z,971.55
2018-01-06T01:22:20.138Z,971.57
2018-01-06T01:23:20.091Z,971.56
2018-01-06T01:24:20.047Z,971.59
2018-01-06T01:25:20.019Z,971.58
2018-01-06T01:26:19.956Z,971.60
2018-01-06T01:27:19.945Z,971.63
2018-01-06T01:28:19.864Z,971.65
2018-01-06T01:29:19.827Z,971.61
2018-01-06T01:30:19.782Z,971.59
2018-01-06T01:31:19.760Z,971.59
2018-01-06T01:32:19.708Z,971.62
2018-01-06T01:33:19.659Z,971.54
2018-01-06T01:34:19.610Z,971.51
2018-01-06T01:35:19.553Z,971.53
2018-01-06T01:36:19.554Z,971.54
2018-01-06T01:37:19.482Z,971.56
2018-01-06T01:38:19.441Z,971.59
2018-01-06T01:39:19.402Z,971.60
2018-01-06T01:40:19.351Z,971.67
2018-01-06T01:41:19.316Z,971.66
2018-01-06T01:42:19.260Z,971.70
2018-01-06T01:43:19.222Z,971.72
2018-01-06T01:44:19.179Z,971.73
2018-01-06T01:45:19.129Z,971.74
2018-01-06T01:46:19.089Z,971.75
2018-01-06T01:47:19.060Z,971.77
2018-01-06T01:48:18.997Z,971.83
2018-01-06T01:49:18.968Z,971.81
2018-01-06T01:50:18.924Z,971.82
2018-01-06T01:51:18.878Z,971.83
2018-01-06T01:52:18.844Z,971.84
2018-01-06T01:53:18.807Z,971.84
2018-01-06T01:54:18.734Z,971.84
2018-01-06T01:55:18.692Z,971.89
2018-01-06T01:56:18.660Z,971.91
2018-01-06T01:57:18.622Z,971.91
2018-01-06T01:58:18.566Z,971.90
2018-01-06T01:59:18.523Z,971.88
2018-01-06T02:00:18.476Z,971.89
2018-01-06T02:01:18.453Z,971.84
2018-01-06T02:02:18.379Z,971.86
2018-01-06T02:03:18.342Z,971.89
2018-01-06T02:04:18.306Z,971.91
2018-01-06T02:05:18.260Z,971.86
2018-01-06T02:06:18.212Z,971.90
2018-01-06T02:07:18.177Z,971.87
2018-01-06T02:08:18.128Z,971.90
2018-01-06T02:09:18.078Z,971.82
2018-01-06T02:10:18.029Z,971.87
2018-01-06T02:11:17.984Z,971.88
2018-01-06T02:12:17.953Z,971.88
2018-01-06T02:13:17.904Z,971.88
2018-01-06T02:14:17.869Z,971.91
2018-01-06T02:15:17.829Z,971.93
2018-01-06T02:16:17.777Z,971.87
2018-01-06T02:17:17.731Z,971.83
2018-01-06T02:18:17.690Z,971.82
2018-01-06T02:19:17.645Z,971.82
2018-01-06T02:20:17.596Z,971.83
2018-01-06T02:21:17.579Z,971.90
2018-01-06T02:22:17.517Z,971.87
2018-01-06T02:23:17.464Z,971.91
2018-01-06T02:24:17.420Z,971.87
2018-01-06T02:25:17.380Z,971.92
2018-01-06T02:26:17.339Z,971.92
2018-01-06T02:27:17.291Z,971.94
2018-01-06T02:28:17.301Z,971.94
2018-01-06T02:29:17.201Z,971.91
2018-01-06T02:30:17.168Z,971.84
2018-01-06T02:31:17.120Z,971.89
2018-01-06T02:32:17.074Z,971.86
2018-01-06T02:33:17.054Z,971.90
2018-01-06T02:34:16.996Z,971.84
2018-01-06T02:35:16.941Z,971.80
2018-01-06T02:36:16.902Z,971.77
2018-01-06T02:37:16.871Z,971.78
2018-01-06T02:38:16.823Z,971.77
2018-01-06T02:39:16.782Z,971.77
2018-01-06T02:40:16.744Z,971.74
2018-01-06T02:41:16.681Z,971.81
2018-01-06T02:42:16.645Z,971.82
2018-01-06T02:43:16.603Z,971.81
2018-01-06T02:44:16.552Z,971.83
2018-01-06T02:45:16.521Z,971.77
2018-01-06T02:46:16.465Z,971.82
2018-01-06T02:47:16.442Z,971.77
2018-01-06T02:48:16.381Z,971.77
2018-01-06T02:49:16.331Z,971.76
2018-01-06T02:50:16.292Z,971.83
2018-01-06T02:51:16.250Z,971.85
2018-01-06T02:52:16.200Z,971.83
2018-01-06T02:53:16.157Z,971.88
2018-01-06T02:54:16.124Z,971.89
2018-01-06T02:55:16.064Z,971.90
2018-01-06T02:56:16.025Z,971.93
2018-01-06T02:57:15.983Z,971.93
2018-01-06T02:58:15.953Z,971.91
2018-01-06T02:59:15.900Z,971.91
2018-01-06T03:00:15.861Z,971.98
2018-01-06T03:01:15.803Z,972.03
2018-01-06T03:02:15.767Z,972.04
2018-01-06T03:03:15.723Z,972.03
2018-01-06T03:04:15.688Z,972.02
2018-01-06T03:05:15.644Z,972.03
2018-01-06T03:06:15.598Z,972.04
2018-01-06T03:07:15.549Z,972.05
2018-01-06T03:08:15.509Z,972.10
2018-01-06T03:09:15.460Z,972.08
2018-01-06T03:10:15.434Z,972.05
2018-01-06T03:11:15.375Z,972.06
2018-01-06T03:12:15.332Z,972.05
2018-01-06T03:13:15.308Z,972.03
2018-01-06T03:14:15.251Z,972.07
2018-01-06T03:15:15.211Z,972.05
2018-01-06T03:16:15.162Z,972.06
2018-01-06T03:17:15.122Z,972.09
2018-01-06T03:18:15.071Z,972.05
2018-01-06T03:19:15.023Z,972.07
2018-01-06T03:20:14.994Z,972.04
2018-01-06T03:21:14.947Z,972.10
2018-01-06T03:22:14.895Z,972.10
2018-01-06T03:23:14.849Z,972.10
2018-01-06T03:24:14.806Z,972.09
2018-01-06T03:25:14.763Z,972.15
2018-01-06T03:26:14.723Z,972.13
2018-01-06T03:27:14.676Z,972.20
2018-01-06T03:28:14.631Z,972.15
2018-01-06T03:29:14.592Z,972.16
2018-01-06T03:30:14.554Z,972.15
2018-01-06T03:31:14.508Z,972.19
2018-01-06T03:32:14.480Z,972.20
2018-01-06T03:33:14.413Z,972.21
2018-01-06T03:34:14.378Z,972.21
2018-01-06T03:35:14.328Z,972.22
2018-01-06T03:36:14.293Z,972.17
2018-01-06T03:37:14.238Z,972.18
2018-01-06T03:38:14.204Z,972.23
2018-01-06T03:39:14.151Z,972.21
2018-01-06T03:40:14.120Z,972.25
2018-01-06T03:41:14.838Z,972.23
2018-01-06T03:42:14.035Z,972.25
2018-01-06T03:43:14.033Z,972.28
2018-01-06T03:44:13.948Z,972.19
2018-01-06T03:45:13.908Z,972.28
2018-01-06T03:46:13.856Z,972.23
2018-01-06T03:47:13.820Z,972.23
2018-01-06T03:48:13.785Z,972.20
2018-01-06T03:49:13.769Z,972.18
2018-01-06T03:50:13.715Z,972.27
2018-01-06T03:51:13.650Z,972.27
2018-01-06T03:52:13.619Z,972.33
2018-01-06T03:53:13.559Z,972.36
2018-01-06T03:54:14.350Z,972.35
2018-01-06T03:55:13.469Z,972.32
2018-01-06T03:56:13.453Z,972.33
2018-01-06T03:57:13.409Z,972.34
2018-01-06T03:58:13.350Z,972.33
2018-01-06T03:59:13.294Z,972.36
2018-01-06T04:00:13.262Z,972.33
2018-01-06T04:01:13.244Z,972.30
2018-01-06T04:02:13.195Z,972.26
2018-01-06T04:03:13.130Z,972.26
2018-01-06T04:04:13.091Z,972.26
2018-01-06T04:05:13.088Z,972.27
2018-01-06T04:06:13.012Z,972.27
2018-01-06T04:07:12.961Z,972.29
2018-01-06T04:08:12.917Z,972.33
2018-01-06T04:09:12.897Z,972.32
2018-01-06T04:10:12.818Z,972.38
2018-01-06T04:11:12.816Z,972.38
2018-01-06T04:12:12.757Z,972.38
2018-01-06T04:13:12.700Z,972.39
2018-01-06T04:14:12.641Z,972.35
2018-01-06T04:15:12.611Z,972.36
2018-01-06T04:16:12.557Z,972.34
2018-01-06T04:17:12.513Z,972.36
2018-01-06T04:18:12.487Z,972.39
2018-01-06T04:19:12.431Z,972.37
2018-01-06T04:20:12.401Z,972.38
2018-01-06T04:21:12.347Z,972.35
2018-01-06T04:22:12.305Z,972.37
2018-01-06T04:23:12.254Z,972.35
2018-01-06T04:24:12.245Z,972.35
2018-01-06T04:25:12.167Z,972.42
2018-01-06T04:26:12.130Z,972.41
2018-01-06T04:27:12.086Z,972.43
2018-01-06T04:28:12.042Z,972.38
2018-01-06T04:29:12.005Z,972.37
2018-01-06T04:30:11.965Z,972.34
2018-01-06T04:31:11.924Z,972.40
2018-01-06T04:32:11.872Z,972.41
2018-01-06T04:33:11.823Z,972.42
2018-01-06T04:34:11.784Z,972.44
2018-01-06T04:35:11.739Z,972.47
2018-01-06T04:36:11.688Z,972.50
2018-01-06T04:37:11.646Z,972.52
2018-01-06T04:38:11.606Z,972.55
2018-01-06T04:39:11.575Z,972.54
2018-01-06T04:40:11.513Z,972.52
2018-01-06T04:41:11.483Z,972.55
2018-01-06T04:42:11.434Z,972.57
2018-01-06T04:43:11.389Z,972.56
2018-01-06T04:44:11.749Z,972.60
2018-01-06T04:45:11.338Z,972.63
2018-01-06T04:46:11.254Z,972.59
2018-01-06T04:47:11.213Z,972.56
2018-01-06T04:48:11.180Z,972.60
2018-01-06T04:49:11.127Z,972.61
2018-01-06T04:50:11.091Z,972.60
2018-01-06T04:51:11.047Z,972.59
2018-01-06T04:52:11.014Z,972.58
2018-01-06T04:53:10.957Z,972.61
2018-01-06T04:54:10.914Z,972.59
2018-01-06T04:55:10.865Z,972.56
2018-01-06T04:56:10.832Z,972.54
2018-01-06T04:57:10.781Z,972.54
2018-01-06T04:58:10.751Z,972.58
2018-01-06T04:59:10.699Z,972.57
2018-01-06T05:00:10.671Z,972.57
2018-01-06T05:01:10.632Z,972.57
2018-01-06T05:02:10.562Z,972.56
2018-01-06T05:03:10.520Z,972.58
2018-01-06T05:04:10.531Z,972.61
2018-01-06T05:05:10.430Z,972.62
2018-01-06T05:06:10.446Z,972.68
2018-01-06T05:07:10.350Z,972.66
2018-01-06T05:08:10.297Z,972.66
2018-01-06T05:09:10.265Z,972.65
2018-01-06T05:10:10.217Z,972.70
2018-01-06T05:11:10.191Z,972.67
2018-01-06T05:12:10.135Z,972.70
2018-01-06T05:13:10.084Z,972.77
2018-01-06T05:14:10.036Z,972.75
2018-01-06T05:15:10.007Z,972.76
2018-01-06T05:16:09.942Z,972.75
2018-01-06T05:17:09.926Z,972.78
2018-01-06T05:18:09.883Z,972.78
2018-01-06T05:19:09.810Z,972.77
2018-01-06T05:20:09.775Z,972.74
2018-01-06T05:21:09.736Z,972.81
2018-01-06T05:22:09.710Z,972.81
2018-01-06T05:23:09.657Z,972.80
2018-01-06T05:24:09.708Z,972.81
2018-01-06T05:25:09.557Z,972.79
2018-01-06T05:26:09.529Z,972.81
2018-01-06T05:27:09.477Z,972.86
2018-01-06T05:28:09.446Z,972.87
2018-01-06T05:29:09.373Z,972.87
2018-01-06T05:30:09.326Z,972.86
2018-01-06T05:31:09.306Z,972.92
2018-01-06T05:32:09.251Z,972.91
2018-01-06T05:33:09.205Z,972.95
2018-01-06T05:34:09.159Z,972.91
2018-01-06T05:35:09.105Z,972.92
2018-01-06T05:36:09.057Z,972.93
2018-01-06T05:37:09.018Z,972.95
2018-01-06T05:38:08.973Z,972.93
2018-01-06T05:39:08.936Z,972.91
2018-01-06T05:40:08.909Z,972.94
2018-01-06T05:41:08.844Z,972.92
2018-01-06T05:42:08.806Z,972.91
2018-01-06T05:43:08.765Z,972.96
2018-01-06T05:44:08.704Z,972.92
2018-01-06T05:45:08.661Z,972.94
2018-01-06T05:46:08.617Z,972.94
2018-01-06T05:47:08.574Z,972.96
2018-01-06T05:48:08.533Z,972.97
2018-01-06T05:49:08.481Z,972.94
2018-01-06T05:50:08.457Z,972.95
2018-01-06T05:51:08.408Z,972.91
2018-01-06T05:52:08.362Z,972.93
2018-01-06T05:53:08.315Z,972.96
2018-01-06T05:54:08.270Z,972.97
2018-01-06T05:55:08.223Z,972.94
2018-01-06T05:56:08.178Z,972.94
2018-01-06T05:57:08.144Z,972.98
2018-01-06T05:58:08.081Z,972.96
2018-01-06T05:59:08.030Z,972.96
2018-01-06T06:00:08.019Z,972.98
2018-01-06T06:01:07.945Z,972.99
2018-01-06T06:02:07.901Z,973.02
2018-01-06T06:03:07.870Z,972.99
2018-01-06T06:04:07.816Z,972.99
2018-01-06T06:05:07.771Z,973.05
2018-01-06T06:06:07.728Z,973.07
2018-01-06T06:07:07.821Z,973.00
2018-01-06T06:08:07.638Z,973.02
2018-01-06T06:09:07.595Z,973.03
2018-01-06T06:10:07.551Z,973.01
2018-01-06T06:11:07.504Z,973.05
2018-01-06T06:12:07.474Z,973.05
2018-01-06T06:13:07.421Z,973.03
2018-01-06T06:14:07.380Z,973.06
2018-01-06T06:15:07.314Z,973.03
2018-01-06T06:16:07.277Z,973.02
2018-01-06T06:17:07.228Z,973.03
2018-01-06T06:18:07.191Z,973.05
2018-01-06T06:19:07.146Z,973.06
2018-01-06T06:20:07.106Z,973.09
2018-01-06T06:21:07.058Z,973.13
2018-01-06T06:22:07.009Z,973.17
2018-01-06T06:23:06.984Z,973.22
2018-01-06T06:24:06.928Z,973.19
2018-01-06T06:25:06.868Z,973.22
2018-01-06T06:26:06.854Z,973.21
2018-01-06T06:27:06.787Z,973.23
2018-01-06T06:28:06.739Z,973.21
2018-01-06T06:29:06.701Z,973.19
2018-01-06T06:30:06.640Z,973.23
2018-01-06T06:31:06.615Z,973.23
2018-01-06T06:32:06.557Z,973.24
2018-01-06T06:33:06.498Z,973.26
2018-01-06T06:34:06.482Z,973.26
2018-01-06T06:35:06.421Z,973.25
2018-01-06T06:36:06.376Z,973.26
2018-01-06T06:37:06.326Z,973.27
2018-01-06T06:38:06.295Z,973.30
2018-01-06T06:39:06.237Z,973.35
2018-01-06T06:40:06.194Z,973.37
2018-01-06T06:41:06.145Z,973.34
2018-01-06T06:42:06.107Z,973.39
2018-01-06T06:43:06.043Z,973.37
2018-01-06T06:44:06.015Z,973.40
2018-01-06T06:45:05.957Z,973.41
2018-01-06T06:46:05.922Z,973.40
2018-01-06T06:47:05.876Z,973.42
2018-01-06T06:48:05.841Z,973.45
2018-01-06T06:49:05.777Z,973.44
2018-01-06T06:50:05.746Z,973.49
2018-01-06T06:51:05.710Z,973.47
2018-01-06T06:52:05.663Z,973.47
2018-01-06T06:53:05.617Z,973.52
2018-01-06T06:54:05.568Z,973.51
2018-01-06T06:55:05.514Z,973.49
2018-01-06T06:56:05.477Z,973.56
2018-01-06T06:57:05.420Z,973.51
2018-01-06T06:58:05.390Z,973.51
2018-01-06T06:59:05.350Z,973.53
2018-01-06T07:00:05.285Z,973.54
2018-01-06T07:01:05.241Z,973.55
2018-01-06T07:02:05.201Z,973.54
2018-01-06T07:03:05.153Z,973.57
2018-01-06T07:04:05.124Z,973.61
2018-01-06T07:05:05.054Z,973.63
2018-01-06T07:06:05.023Z,973.61
2018-01-06T07:07:04.965Z,973.64
2018-01-06T07:08:04.925Z,973.69
2018-01-06T07:09:04.873Z,973.68
2018-01-06T07:10:04.835Z,973.68
2018-01-06T07:11:04.788Z,973.68
2018-01-06T07:12:04.802Z,973.75
2018-01-06T07:13:04.701Z,973.79
2018-01-06T07:14:04.646Z,973.84
2018-01-06T07:15:04.613Z,973.87
2018-01-06T07:16:04.555Z,973.87
2018-01-06T07:17:04.526Z,973.90
2018-01-06T07:18:04.470Z,973.94
2018-01-06T07:19:04.413Z,973.97
2018-01-06T07:20:04.378Z,973.98
2018-01-06T07:21:04.347Z,974.03
2018-01-06T07:22:04.315Z,974.05
2018-01-06T07:23:04.254Z,974.04
2018-01-06T07:24:04.232Z,974.07
2018-01-06T07:25:04.153Z,974.10
2018-01-06T07:26:04.097Z,974.11
2018-01-06T07:27:04.067Z,974.15
2018-01-06T07:28:04.037Z,974.15
2018-01-06T07:29:03.970Z,974.17
2018-01-06T07:30:03.947Z,974.16
2018-01-06T07:31:03.921Z,974.19
2018-01-06T07:32:03.818Z,974.20
2018-01-06T07:33:03.811Z,974.22
2018-01-06T07:34:03.745Z,974.22
2018-01-06T07:35:03.699Z,974.23
2018-01-06T07:36:03.678Z,974.18
2018-01-06T07:37:03.672Z,974.23
2018-01-06T07:38:03.553Z,974.24
2018-01-06T07:39:03.533Z,974.26
2018-01-06T07:40:03.455Z,974.31
2018-01-06T07:41:03.408Z,974.28
2018-01-06T07:42:03.402Z,974.31
2018-01-06T07:43:03.397Z,974.29
2018-01-06T07:44:03.311Z,974.30
2018-01-06T07:45:03.269Z,974.29
2018-01-06T07:46:03.227Z,974.27
2018-01-06T07:47:03.165Z,974.24
2018-01-06T07:48:03.159Z,974.26
2018-01-06T07:49:03.058Z,974.28
2018-01-06T07:50:03.028Z,974.34
2018-01-06T07:51:02.965Z,974.34
2018-01-06T07:52:02.933Z,974.37
2018-01-06T07:53:02.951Z,974.42
2018-01-06T07:54:02.859Z,974.42
2018-01-06T07:55:02.814Z,974.44
2018-01-06T07:56:02.792Z,974.46
2018-01-06T07:57:02.718Z,974.48
2018-01-06T07:58:02.647Z,974.49
2018-01-06T07:59:02.618Z,974.51
2018-01-06T08:00:02.635Z,974.48
2018-01-06T08:01:02.533Z,974.48
2018-01-06T08:02:02.682Z,974.50
2018-01-06T08:03:02.433Z,974.51
2018-01-06T08:04:02.432Z,974.49
2018-01-06T08:05:02.409Z,974.52
2018-01-06T08:06:02.292Z,974.55
2018-01-06T08:07:02.259Z,974.61
2018-01-06T08:08:02.207Z,974.62
2018-01-06T08:09:02.139Z,974.67
2018-01-06T08:10:02.119Z,974.60
2018-01-06T08:11:02.137Z,974.69
2018-01-06T08:12:01.995Z,974.64
2018-01-06T08:13:02.028Z,974.63
2018-01-06T08:14:02.010Z,974.63
2018-01-06T08:15:01.898Z,974.65
2018-01-06T08:16:01.862Z,974.68
2018-01-06T08:17:01.800Z,974.65
2018-01-06T08:18:01.761Z,974.67
2018-01-06T08:19:01.702Z,974.68
2018-01-06T08:20:01.712Z,974.71
2018-01-06T08:21:01.628Z,974.75
2018-01-06T08:22:01.578Z,974.76
2018-01-06T08:23:01.522Z,974.79
2018-01-06T08:24:01.479Z,974.81
2018-01-06T08:25:01.437Z,974.84
2018-01-06T08:26:01.390Z,974.87
2018-01-06T08:27:01.385Z,974.83
2018-01-06T08:28:01.297Z,974.80
2018-01-06T08:29:01.249Z,974.80
2018-01-06T08:30:01.237Z,974.77
2018-01-06T08:31:01.165Z,974.81
2018-01-06T08:32:01.156Z,974.81
2018-01-06T08:33:01.076Z,974.82
2018-01-06T08:34:01.041Z,974.81
2018-01-06T08:35:00.982Z,974.86
2018-01-06T08:36:00.944Z,974.85
2018-01-06T08:37:00.901Z,974.93
2018-01-06T08:38:00.879Z,974.93
2018-01-06T08:39:00.817Z,974.96
2018-01-06T08:40:00.802Z,974.96
2018-01-06T08:41:00.717Z,975.01
2018-01-06T08:42:00.673Z,975.00
2018-01-06T08:43:00.622Z,975.08
2018-01-06T08:44:00.594Z,975.08
2018-01-06T08:45:00.527Z,975.09
2018-01-06T08:46:00.489Z,975.10
2018-01-06T08:47:00.453Z,975.13
2018-01-06T08:48:00.417Z,975.17
2018-01-06T08:49:00.373Z,975.17
2018-01-06T08:50:00.338Z,975.18
2018-01-06T08:51:00.286Z,975.19
2018-01-06T08:52:00.242Z,975.18
2018-01-06T08:53:00.214Z,975.20
2018-01-06T08:54:00.166Z,975.19
2018-01-06T08:55:00.108Z,975.21
2018-01-06T08:56:00.065Z,975.22
2018-01-06T08:57:00.008Z,975.16
2018-01-06T08:58:00.075Z,975.15
2018-01-06T08:58:59.943Z,975.15
2018-01-06T08:59:59.881Z,975.15
2018-01-06T09:00:59.852Z,975.14
2018-01-06T09:01:59.802Z,975.13
2018-01-06T09:02:59.778Z,975.18
2018-01-06T09:03:59.722Z,975.16
2018-01-06T09:04:59.691Z,975.12
2018-01-06T09:05:59.636Z,975.13
2018-01-06T09:06:59.580Z,975.09
2018-01-06T09:07:59.559Z,975.01
2018-01-06T09:08:59.496Z,975.04
2018-01-06T09:09:59.459Z,975.01
2018-01-06T09:10:59.404Z,975.00
2018-01-06T09:11:59.359Z,974.94
2018-01-06T09:12:59.359Z,974.99
2018-01-06T09:13:59.282Z,974.98
2018-01-06T09:14:59.227Z,974.96
2018-01-06T09:15:59.197Z,974.98
2018-01-06T09:16:59.146Z,975.03
2018-01-06T09:17:59.107Z,975.05
2018-01-06T09:18:59.059Z,975.08
2018-01-06T09:19:59.001Z,975.08
2018-01-06T09:20:58.963Z,975.11
2018-01-06T09:21:58.929Z,975.13
2018-01-06T09:22:58.910Z,975.18
2018-01-06T09:23:58.861Z,975.21
2018-01-06T09:24:58.792Z,975.26
2018-01-06T09:25:58.780Z,975.30
2018-01-06T09:26:58.703Z,975.29
2018-01-06T09:27:58.742Z,975.32
2018-01-06T09:28:58.677Z,975.38
2018-01-06T09:29:58.585Z,975.41
2018-01-06T09:30:58.543Z,975.43
2018-01-06T09:31:58.504Z,975.43
2018-01-06T09:33:00.988Z,975.50
2018-01-06T09:33:58.411Z,975.50
2018-01-06T09:34:58.385Z,975.52
2018-01-06T09:35:58.329Z,975.53
2018-01-06T09:36:58.299Z,975.54
2018-01-06T09:37:58.261Z,975.56
2018-01-06T09:38:58.209Z,975.53
2018-01-06T09:39:58.173Z,975.54
2018-01-06T09:40:58.132Z,975.58
2018-01-06T09:41:58.092Z,975.62
2018-01-06T09:42:58.043Z,975.62
2018-01-06T09:43:57.998Z,975.60
2018-01-06T09:44:57.982Z,975.63
2018-01-06T09:45:57.936Z,975.64
2018-01-06T09:46:57.920Z,975.67
2018-01-06T09:47:57.856Z,975.65
2018-01-06T09:48:57.782Z,975.66
2018-01-06T09:49:57.744Z,975.61
2018-01-06T09:50:57.718Z,975.61
2018-01-06T09:51:57.665Z,975.58
2018-01-06T09:52:57.632Z,975.61
2018-01-06T09:53:57.587Z,975.56
2018-01-06T09:54:57.547Z,975.60
2018-01-06T09:55:57.507Z,975.62
2018-01-06T09:56:57.459Z,975.58
2018-01-06T09:57:59.407Z,975.61
2018-01-06T09:58:57.398Z,975.64
2018-01-06T09:59:57.361Z,975.63
2018-01-06T10:00:57.325Z,975.64
2018-01-06T10:01:57.269Z,975.64
2018-01-06T10:02:57.215Z,975.64
2018-01-06T10:03:57.218Z,975.67
2018-01-06T10:04:57.133Z,975.68
2018-01-06T10:05:57.100Z,975.69
2018-01-06T10:06:57.065Z,975.65
2018-01-06T10:07:57.079Z,975.67
2018-01-06T10:08:56.973Z,975.65
2018-01-06T10:09:57.012Z,975.65
2018-01-06T10:10:56.902Z,975.68
2018-01-06T10:11:56.871Z,975.64
2018-01-06T10:12:56.845Z,975.64
2018-01-06T10:13:56.809Z,975.65
2018-01-06T10:14:56.739Z,975.68
2018-01-06T10:15:56.697Z,975.66
2018-01-06T10:16:56.679Z,975.65
2018-01-06T10:17:56.663Z,975.66
2018-01-06T10:18:56.606Z,975.66
2018-01-06T10:19:56.571Z,975.63
2018-01-06T10:20:56.509Z,975.58
2018-01-06T10:21:56.482Z,975.59
2018-01-06T10:22:56.536Z,975.60
2018-01-06T10:23:56.418Z,975.61
2018-01-06T10:24:56.368Z,975.63
2018-01-06T10:25:56.347Z,975.64
2018-01-06T10:26:56.291Z,975.67
2018-01-06T10:27:56.266Z,975.66
2018-01-06T10:28:56.238Z,975.69
2018-01-06T10:29:56.207Z,975.72
2018-01-06T10:30:58.005Z,975.76
2018-01-06T10:31:56.130Z,975.73
2018-01-06T10:32:56.092Z,975.78
2018-01-06T10:33:56.053Z,975.79
2018-01-06T10:34:56.005Z,975.81
2018-01-06T10:35:55.959Z,975.83
2018-01-06T10:36:55.943Z,975.81
2018-01-06T10:37:55.904Z,975.85
2018-01-06T10:38:55.880Z,975.87
2018-01-06T10:39:55.844Z,975.86
2018-01-06T10:40:55.800Z,975.84
2018-01-06T10:41:55.757Z,975.84
2018-01-06T10:42:55.778Z,975.80
2018-01-06T10:43:55.682Z,975.81
2018-01-06T10:44:55.641Z,975.82
2018-01-06T10:45:55.609Z,975.81
2018-01-06T10:46:55.592Z,975.80
2018-01-06T10:47:55.614Z,975.78
2018-01-06T10:48:55.497Z,975.81
2018-01-06T10:49:55.443Z,975.74
2018-01-06T10:50:55.417Z,975.77
2018-01-06T10:51:55.383Z,975.77
2018-01-06T10:52:55.374Z,975.79
2018-01-06T10:53:55.305Z,975.78
2018-01-06T10:54:55.257Z,975.77
2018-01-06T10:55:55.225Z,975.77
2018-01-06T10:56:55.193Z,975.72
2018-01-06T10:57:55.168Z,975.74
2018-01-06T10:58:55.098Z,975.74
2018-01-06T10:59:55.066Z,975.77
2018-01-06T11:00:55.031Z,975.77
2018-01-06T11:01:54.989Z,975.79
2018-01-06T11:02:54.955Z,975.79
2018-01-06T11:03:54.930Z,975.80
2018-01-06T11:04:54.875Z,975.76
2018-01-06T11:05:54.846Z,975.77
2018-01-06T11:06:54.810Z,975.78
2018-01-06T11:07:54.764Z,975.76
2018-01-06T11:08:54.733Z,975.73
2018-01-06T11:09:54.693Z,975.77
2018-01-06T11:10:54.654Z,975.73
2018-01-06T11:11:54.663Z,975.75
2018-01-06T11:12:54.732Z,975.78
2018-01-06T11:13:54.537Z,975.74
2018-01-06T11:14:54.494Z,975.78
2018-01-06T11:15:54.477Z,975.75
2018-01-06T11:16:54.938Z,975.75
2018-01-06T11:17:54.365Z,975.74
2018-01-06T11:18:54.329Z,975.75
2018-01-06T11:19:54.300Z,975.74
2018-01-06T11:20:54.276Z,975.70
2018-01-06T11:21:54.231Z,975.73
2018-01-06T11:22:54.203Z,975.75
2018-01-06T11:23:54.149Z,975.74
2018-01-06T11:24:54.116Z,975.73
2018-01-06T11:25:54.094Z,975.73
2018-01-06T11:26:54.049Z,975.73
2018-01-06T11:27:53.997Z,975.74
2018-01-06T11:28:53.997Z,975.75
2018-01-06T11:29:53.947Z,975.75
2018-01-06T11:30:53.929Z,975.75
2018-01-06T11:31:53.844Z,975.72
2018-01-06T11:32:53.792Z,975.73
2018-01-06T11:33:53.757Z,975.73
2018-01-06T11:34:53.723Z,975.69
2018-01-06T11:35:53.697Z,975.69
2018-01-06T11:36:53.656Z,975.69
2018-01-06T11:37:53.608Z,975.65
2018-01-06T11:38:53.564Z,975.63
2018-01-06T11:39:53.540Z,975.66
2018-01-06T11:40:53.500Z,975.66
2018-01-06T11:41:53.454Z,975.63
2018-01-06T11:42:53.423Z,975.63
2018-01-06T11:43:53.380Z,975.61
2018-01-06T11:44:53.331Z,975.61
2018-01-06T11:45:53.307Z,975.60
2018-01-06T11:46:53.258Z,975.65
2018-01-06T11:47:53.228Z,975.64
2018-01-06T11:48:53.188Z,975.67
2018-01-06T11:49:53.131Z,975.68
2018-01-06T11:50:53.111Z,975.74
2018-01-06T11:51:53.058Z,975.66
2018-01-06T11:52:53.033Z,975.71
2018-01-06T11:53:52.977Z,975.64
2018-01-06T11:54:52.967Z,975.66
2018-01-06T11:55:52.904Z,975.62
2018-01-06T11:56:52.883Z,975.64
2018-01-06T11:57:52.822Z,975.64
2018-01-06T11:58:52.775Z,975.62
2018-01-06T11:59:52.744Z,975.60
2018-01-06T12:00:52.717Z,975.61
2018-01-06T12:01:52.781Z,975.59
2018-01-06T12:02:52.624Z,975.57
2018-01-06T12:03:52.664Z,975.58
2018-01-06T12:04:52.578Z,975.54
2018-01-06T12:05:52.517Z,975.59
2018-01-06T12:06:52.470Z,975.61
2018-01-06T12:07:52.427Z,975.60
2018-01-06T12:08:52.366Z,975.60
2018-01-06T12:09:52.353Z,975.60
2018-01-06T12:10:52.323Z,975.63
2018-01-06T12:11:52.290Z,975.67
2018-01-06T12:12:52.228Z,975.66
2018-01-06T12:13:52.217Z,975.67
2018-01-06T12:14:52.157Z,975.65
2018-01-06T12:15:52.119Z,975.71
2018-01-06T12:16:52.073Z,975.70
2018-01-06T12:17:52.045Z,975.70
2018-01-06T12:18:52.018Z,975.70
2018-01-06T12:19:51.963Z,975.71
2018-01-06T12:20:51.919Z,975.72
2018-01-06T12:21:51.880Z,975.72
2018-01-06T12:22:51.829Z,975.72
2018-01-06T12:23:51.818Z,975.70
2018-01-06T12:24:51.771Z,975.71
2018-01-06T12:25:51.728Z,975.74
2018-01-06T12:26:51.690Z,975.76
2018-01-06T12:27:51.671Z,975.76